createdAt,value
2023-01-22T00:01:05.143Z,-1.2
2023-01-22T00:06:47.096Z,-0.9
2023-01-22T00:12:21.115Z,-1
2023-01-22T00:18:03.643Z,-1.1
2023-01-22T00:23:30.440Z,-1
2023-01-22T00:29:13.339Z,-1
2023-01-22T00:34:38.380Z,-0.9
2023-01-22T00:40:19.328Z,-0.9
2023-01-22T00:45:44.203Z,-0.9
2023-01-22T00:51:24.168Z,-1
2023-01-22T00:57:07.318Z,-1
2023-01-22T01:02:27.184Z,-0.9
2023-01-22T01:08:10.199Z,-0.9
2023-01-22T01:13:25.269Z,-0.8
2023-01-22T01:19:06.883Z,-0.8
2023-01-22T01:24:42.859Z,-0.8
2023-01-22T01:30:28.875Z,-0.7
2023-01-22T01:35:36.174Z,-0.8
2023-01-22T01:41:27.507Z,-0.7
2023-01-22T01:46:57.585Z,-0.8
2023-01-22T01:52:43.406Z,-0.8
2023-01-22T01:58:16.173Z,-0.8
2023-01-22T02:03:36.075Z,-0.8
2023-01-22T02:08:56.854Z,-0.8
2023-01-22T02:14:30.788Z,-0.9
2023-01-22T02:20:28.970Z,-0.9
2023-01-22T02:25:58.409Z,-0.9
2023-01-22T02:31:10.442Z,-0.8
2023-01-22T02:37:03.299Z,-0.9
2023-01-22T02:42:27.415Z,-0.9
2023-01-22T02:48:14.178Z,-1
2023-01-22T02:53:40.270Z,-0.9
2023-01-22T02:59:14.514Z,-1
2023-01-22T03:04:57.250Z,-1.1
2023-01-22T03:10:26.109Z,-1.1
2023-01-22T03:15:47.269Z,-1.1
2023-01-22T03:21:31.563Z,-1.4
2023-01-22T03:27:08.117Z,-1.4
2023-01-22T03:32:35.897Z,-1.5
2023-01-22T03:38:14.725Z,-1.5
2023-01-22T03:43:26.819Z,-1.5
2023-01-22T03:49:07.033Z,-1.5
2023-01-22T03:54:40.685Z,-1.4
2023-01-22T04:00:25.750Z,-1.4
2023-01-22T04:05:44.171Z,-1.4
2023-01-22T04:11:30.728Z,-1.4
2023-01-22T04:16:49.283Z,-1.5
2023-01-22T04:22:30.749Z,-1.5
2023-01-22T04:28:01.105Z,-1.5
2023-01-22T04:33:31.969Z,-1.6
2023-01-22T04:39:14.909Z,-1.5
2023-01-22T04:44:45.959Z,-1.5
2023-01-22T04:50:15.367Z,-1.5
2023-01-22T04:55:52.011Z,-1.6
2023-01-22T05:01:29.876Z,-1.6
2023-01-22T05:06:58.686Z,-1.6
2023-01-22T05:12:14.381Z,-1.6
2023-01-22T05:18:06.188Z,-1.6
2023-01-22T05:23:28.083Z,-1.4
2023-01-22T05:28:56.996Z,-1.4
2023-01-22T05:34:39.553Z,-1.3
2023-01-22T05:40:27.270Z,-1.3
2023-01-22T05:45:47.052Z,-1.3
2023-01-22T05:51:26.609Z,-1.3
2023-01-22T05:57:01.259Z,-1.3
2023-01-22T06:02:41.280Z,-1.2
2023-01-22T06:07:57.725Z,-1.2
2023-01-22T06:13:30.371Z,-1.1
2023-01-22T06:19:00.111Z,-1.2
2023-01-22T06:24:47.508Z,-1.1
2023-01-22T06:30:29.202Z,-1.2
2023-01-22T06:35:36.422Z,-1.3
2023-01-22T06:41:32.377Z,-1.2
2023-01-22T06:47:03.701Z,-1.2
2023-01-22T06:52:24.131Z,-1.2
2023-01-22T06:57:59.188Z,-1.2
2023-01-22T07:03:28.631Z,-1.2
2023-01-22T07:09:05.174Z,-1.2
2023-01-22T07:14:37.784Z,-1.2
2023-01-22T07:20:21.582Z,-1.2
2023-01-22T07:25:43.031Z,-1.3
2023-01-22T07:31:27.389Z,-1.2
2023-01-22T07:36:58.298Z,-1.2
2023-01-22T07:42:22.387Z,-1.1
2023-01-22T07:48:08.148Z,-1.2
2023-01-22T07:53:21.939Z,-1.2
2023-01-22T07:59:01.820Z,-1.1
2023-01-22T08:04:34.561Z,-1.1
2023-01-22T08:10:18.792Z,-1.1
2023-01-22T08:15:43.441Z,-1
2023-01-22T08:21:28.195Z,-0.9
2023-01-22T08:27:03.997Z,-0.9
2023-01-22T08:32:40.596Z,-0.8
2023-01-22T08:37:51.617Z,-0.8
2023-01-22T08:43:46.117Z,-0.7
2023-01-22T08:49:09.679Z,-0.7
2023-01-22T08:54:44.916Z,-0.6
2023-01-22T09:00:30.434Z,-0.7
2023-01-22T09:05:59.839Z,-0.7
2023-01-22T09:11:16.039Z,-0.7
2023-01-22T09:17:09.862Z,-0.8
2023-01-22T09:22:45.508Z,-0.8
2023-01-22T09:28:15.553Z,-0.9
2023-01-22T09:33:52.311Z,-0.9
2023-01-22T09:39:03.816Z,-0.9
2023-01-22T09:44:53.432Z,-0.7
2023-01-22T09:50:35.395Z,-0.7
2023-01-22T09:56:03.118Z,-0.6
2023-01-22T10:01:27.071Z,-0.4
2023-01-22T10:06:58.044Z,-0.3
2023-01-22T10:12:35.299Z,-0.3
2023-01-22T10:18:11.112Z,-0.2
2023-01-22T10:23:52.104Z,-0.1
2023-01-22T10:29:35.893Z,0
2023-01-22T10:35:04.282Z,0
2023-01-22T10:40:38.298Z,0
2023-01-22T10:46:06.697Z,0.2
2023-01-22T10:51:45.270Z,0.1
2023-01-22T10:57:04.857Z,0.2
2023-01-22T11:02:40.657Z,0.3
2023-01-22T11:08:18.543Z,0.3
2023-01-22T11:14:02.682Z,0.3
2023-01-22T11:19:42.734Z,0.3
2023-01-22T11:25:08.136Z,0.4
2023-01-22T11:30:40.334Z,0.3
2023-01-22T11:36:19.856Z,0.3
2023-01-22T11:41:45.643Z,0.3
2023-01-22T11:47:29.815Z,0.2
2023-01-22T11:53:08.116Z,0.2
2023-01-22T11:58:18.494Z,0.1
2023-01-22T12:04:06.253Z,0.1
2023-01-22T12:09:34.042Z,0.1
2023-01-22T12:15:14.069Z,0
2023-01-22T12:20:56.596Z,0
2023-01-22T12:26:27.922Z,0
2023-01-22T12:31:50.266Z,0
2023-01-22T12:37:24.307Z,0
2023-01-22T12:43:02.479Z,0
2023-01-22T12:48:20.964Z,-0.1
2023-01-22T12:53:58.231Z,-0.1
2023-01-22T12:59:52.693Z,-0.1
2023-01-22T13:05:12.181Z,-0.1
2023-01-22T13:10:59.015Z,-0.1
2023-01-22T13:16:14.615Z,-0.1
2023-01-22T13:21:55.173Z,0
2023-01-22T13:27:33.892Z,0
2023-01-22T13:33:17.814Z,0
2023-01-22T13:38:25.796Z,0
2023-01-22T13:44:19.654Z,0
2023-01-22T13:49:40.196Z,0
2023-01-22T13:55:12.402Z,0
2023-01-22T14:00:57.747Z,0
2023-01-22T14:06:26.808Z,0
2023-01-22T14:12:03.873Z,0.1
2023-01-22T14:17:42.472Z,0.1
2023-01-22T14:22:57.910Z,0.1
2023-01-22T14:28:35.371Z,0.1
2023-01-22T14:34:18.065Z,0.1
2023-01-22T14:39:47.695Z,0.1
2023-01-22T14:45:38.764Z,0
2023-01-22T14:50:50.203Z,0.1
2023-01-22T14:56:24.142Z,0.1
2023-01-22T15:02:01.613Z,0
2023-01-22T15:07:43.480Z,0.1
2023-01-22T15:13:16.281Z,0
2023-01-22T15:18:46.984Z,0
2023-01-22T15:24:36.540Z,0
2023-01-22T15:30:08.985Z,0.1
2023-01-22T15:35:20.824Z,0.1
2023-01-22T15:40:59.704Z,0.1
2023-01-22T15:46:32.378Z,0
2023-01-22T15:52:15.021Z,0.1
2023-01-22T15:57:35.633Z,0.1
2023-01-22T16:03:12.883Z,0.1
2023-01-22T16:09:06.430Z,0.1
2023-01-22T16:14:19.744Z,0
2023-01-22T16:20:07.946Z,0
2023-01-22T16:25:43.529Z,0
2023-01-22T16:30:54.960Z,-0.1
2023-01-22T16:36:52.616Z,0
2023-01-22T16:42:04.583Z,0
2023-01-22T16:47:54.823Z,0
2023-01-22T16:53:32.981Z,0
2023-01-22T16:59:04.613Z,0
2023-01-22T17:04:44.618Z,0
2023-01-22T17:09:53.980Z,0
2023-01-22T17:15:31.130Z,-0.1
2023-01-22T17:21:26.173Z,-0.1
2023-01-22T17:26:40.281Z,-0.1
2023-01-22T17:32:22.458Z,0
2023-01-22T17:38:08.067Z,-0.1
2023-01-22T17:43:22.014Z,0
2023-01-22T17:49:15.242Z,0
2023-01-22T17:54:42.412Z,-0.1
2023-01-22T18:00:14.134Z,0
2023-01-22T18:05:39.111Z,-0.1
2023-01-22T18:11:31.356Z,-0.1
2023-01-22T18:16:49.693Z,-0.1
2023-01-22T18:22:13.686Z,0
2023-01-22T18:28:04.280Z,-0.1
2023-01-22T18:33:23.277Z,-0.1
2023-01-22T18:38:52.090Z,-0.2
2023-01-22T18:44:38.896Z,-0.2
2023-01-22T18:50:00.269Z,-0.2
2023-01-22T18:55:59.121Z,-0.2
2023-01-22T19:01:18.768Z,-0.2
2023-01-22T19:07:05.292Z,-0.1
2023-01-22T19:12:24.111Z,-0.1
2023-01-22T19:17:57.418Z,-0.1
2023-01-22T19:23:26.559Z,-0.1
2023-01-22T19:29:12.574Z,-0.1
2023-01-22T19:34:37.540Z,-0.2
2023-01-22T19:40:21.827Z,-0.1
2023-01-22T19:45:56.615Z,-0.1
2023-01-22T19:51:32.072Z,-0.1
2023-01-22T20:02:20.928Z,-0.1
2023-01-22T20:08:19.056Z,-0.1
2023-01-22T20:13:42.468Z,-0.2
2023-01-22T20:19:15.913Z,-0.2
2023-01-22T20:24:52.699Z,-0.1
2023-01-22T20:30:14.630Z,-0.2
2023-01-22T20:36:01.583Z,-0.2
2023-01-22T20:41:36.493Z,-0.3
2023-01-22T20:46:55.717Z,-0.3
2023-01-22T20:52:46.769Z,-0.3
2023-01-22T20:58:12.806Z,-0.2
2023-01-22T21:03:57.481Z,-0.2
2023-01-22T21:09:11.298Z,-0.2
2023-01-22T21:14:49.151Z,-0.2
2023-01-22T21:20:26.198Z,-0.3
2023-01-22T21:25:46.300Z,-0.3
2023-01-22T21:31:42.394Z,-0.3
2023-01-22T21:36:52.860Z,-0.4
2023-01-22T21:42:45.616Z,-0.3
2023-01-22T21:48:12.345Z,-0.1
2023-01-22T21:53:36.693Z,-0.2
2023-01-22T21:59:36.135Z,-0.3
2023-01-22T22:04:47.549Z,-0.1
2023-01-22T22:10:36.447Z,-0.2
2023-01-22T22:15:51.844Z,0
2023-01-22T22:21:44.800Z,-0.1
2023-01-22T22:27:05.949Z,0
2023-01-22T22:32:49.254Z,0
2023-01-22T22:38:19.293Z,0
2023-01-22T22:43:41.832Z,0
2023-01-22T22:49:17.603Z,0
2023-01-22T22:54:51.508Z,0
2023-01-22T23:00:37.137Z,-0.1
2023-01-22T23:06:18.788Z,0
2023-01-22T23:11:53.531Z,-0.1
2023-01-22T23:17:01.966Z,0
2023-01-22T23:22:55.450Z,0
2023-01-22T23:28:34.616Z,0
2023-01-22T23:33:50.485Z,-0.1
2023-01-22T23:39:30.313Z,0
2023-01-22T23:44:52.581Z,0
2023-01-22T23:50:43.040Z,0.1
2023-01-22T23:56:04.861Z,0
